createdAt,value
2022-09-11T00:01:29.412Z,88.60
2022-09-11T00:03:59.752Z,86.53
2022-09-11T00:06:30.670Z,86.47
2022-09-11T00:09:01.270Z,87.25
2022-09-11T00:11:33.005Z,86.51
2022-09-11T00:14:01.990Z,86.39
2022-09-11T00:16:34.769Z,86.67
2022-09-11T00:19:07.480Z,86.43
2022-09-11T00:21:35.949Z,87.37
2022-09-11T00:24:03.920Z,88.59
2022-09-11T00:26:33.076Z,89.17
2022-09-11T00:29:02.164Z,88.79
2022-09-11T00:31:31.033Z,89.41
2022-09-11T00:33:59.349Z,87.55
2022-09-11T00:36:29.318Z,87.09
2022-09-11T00:38:57.946Z,87.22
2022-09-11T00:41:28.446Z,88.56
2022-09-11T00:44:01.022Z,89.04
2022-09-11T00:46:41.489Z,88.24
2022-09-11T00:49:22.322Z,87.05
2022-09-11T00:51:54.443Z,87.56
2022-09-11T00:54:29.552Z,87.04
2022-09-11T00:56:59.924Z,86.37
2022-09-11T00:59:31.914Z,85.82
2022-09-11T01:01:59.908Z,86.84
2022-09-11T01:04:29.242Z,87.33
2022-09-11T01:06:59.249Z,87.66
2022-09-11T01:09:30.446Z,87.62
2022-09-11T01:12:09.201Z,87.90
2022-09-11T01:14:53.447Z,87.82
2022-09-11T01:17:27.966Z,87.36
2022-09-11T01:20:17.856Z,87.07
2022-09-11T01:23:32.857Z,87.54
2022-09-11T01:26:18.871Z,87.37
2022-09-11T01:28:53.515Z,87.16
2022-09-11T01:31:24.964Z,86.64
2022-09-11T01:34:00.608Z,86.94
2022-09-11T01:36:36.638Z,86.55
2022-09-11T01:39:05.931Z,86.69
2022-09-11T01:41:40.505Z,86.96
2022-09-11T01:44:14.019Z,85.71
2022-09-11T01:46:47.511Z,88.01
2022-09-11T01:49:19.802Z,87.45
2022-09-11T01:51:50.583Z,87.67
2022-09-11T01:54:22.990Z,86.48
2022-09-11T01:56:55.443Z,85.70
2022-09-11T01:59:32.937Z,84.94
2022-09-11T02:02:05.099Z,84.88
2022-09-11T02:04:40.932Z,85.79
2022-09-11T02:07:17.137Z,85.53
2022-09-11T02:09:54.017Z,84.77
2022-09-11T02:12:27.514Z,83.91
2022-09-11T02:14:57.143Z,83.85
2022-09-11T02:17:33.557Z,85.40
2022-09-11T02:20:02.122Z,85.98
2022-09-11T02:22:31.088Z,85.95
2022-09-11T02:25:03.243Z,85.28
2022-09-11T02:27:33.573Z,86.14
2022-09-11T02:30:03.197Z,86.13
2022-09-11T02:32:36.779Z,85.13
2022-09-11T02:35:05.252Z,84.28
2022-09-11T02:37:44.344Z,84.23
2022-09-11T02:40:42.234Z,86.96
2022-09-11T02:43:47.707Z,85.58
2022-09-11T02:46:30.973Z,84.73
2022-09-11T02:49:09.745Z,84.69
2022-09-11T02:51:46.134Z,84.13
2022-09-11T02:54:26.887Z,85.57
2022-09-11T02:57:02.248Z,85.87
2022-09-11T02:59:34.982Z,85.68
2022-09-11T03:02:04.664Z,86.68
2022-09-11T03:04:34.873Z,87.32
2022-09-11T03:07:04.270Z,85.98
2022-09-11T03:09:33.639Z,86.60
2022-09-11T03:12:06.053Z,86.63
2022-09-11T03:14:38.209Z,86.29
2022-09-11T03:17:08.396Z,85.43
2022-09-11T03:19:37.637Z,87.80
2022-09-11T03:22:07.739Z,86.48
2022-09-11T03:24:35.787Z,85.32
2022-09-11T03:27:04.561Z,87.40
2022-09-11T03:29:33.589Z,87.18
2022-09-11T03:32:02.300Z,85.69
2022-09-11T03:34:31.711Z,85.36
2022-09-11T03:37:00.194Z,85.46
2022-09-11T03:39:29.108Z,85.88
2022-09-11T03:42:00.115Z,85.76
2022-09-11T03:44:28.871Z,85.10
2022-09-11T03:46:57.222Z,86.59
2022-09-11T03:49:25.784Z,86.29
2022-09-11T03:51:54.878Z,87.55
2022-09-11T03:54:23.075Z,88.15
2022-09-11T03:56:51.827Z,88.51
2022-09-11T03:59:19.961Z,88.68
2022-09-11T04:01:50.102Z,87.23
2022-09-11T04:04:17.982Z,86.17
2022-09-11T04:06:46.654Z,85.76
2022-09-11T04:09:17.133Z,86.25
2022-09-11T04:11:45.215Z,85.88
2022-09-11T04:14:22.792Z,84.38
2022-09-11T04:16:52.519Z,86.12
2022-09-11T04:19:23.595Z,85.50
2022-09-11T04:21:51.751Z,86.15
2022-09-11T04:24:20.885Z,85.34
2022-09-11T04:26:48.907Z,84.11
2022-09-11T04:29:24.193Z,84.57
2022-09-11T04:31:52.966Z,84.29
2022-09-11T04:34:21.851Z,84.22
2022-09-11T04:36:50.635Z,83.78
2022-09-11T04:39:23.030Z,83.35
2022-09-11T04:41:50.942Z,83.57
2022-09-11T04:44:20.733Z,83.10
2022-09-11T04:46:48.634Z,83.91
2022-09-11T04:49:17.028Z,83.76
2022-09-11T04:51:47.141Z,83.91
2022-09-11T04:54:21.075Z,83.58
2022-09-11T04:56:54.720Z,83.58
2022-09-11T04:59:24.118Z,83.58
2022-09-11T05:02:05.602Z,83.58
2022-09-11T05:04:37.287Z,83.36
2022-09-11T05:07:05.283Z,82.79
2022-09-11T05:09:36.192Z,81.73
2022-09-11T05:12:07.251Z,82.29
2022-09-11T05:14:37.870Z,81.86
2022-09-11T05:17:06.074Z,82.96
2022-09-11T05:19:37.695Z,84.57
2022-09-11T05:22:08.240Z,83.90
2022-09-11T05:24:39.400Z,84.18
2022-09-11T05:27:09.656Z,84.71
2022-09-11T05:29:39.282Z,83.55
2022-09-11T05:32:13.141Z,82.79
2022-09-11T05:34:42.328Z,83.69
2022-09-11T05:37:13.620Z,83.59
2022-09-11T05:39:45.359Z,83.76
2022-09-11T05:42:16.600Z,83.93
2022-09-11T05:44:49.160Z,83.82
2022-09-11T05:47:17.600Z,83.68
2022-09-11T05:49:49.617Z,85.18
2022-09-11T05:52:17.673Z,83.86
2022-09-11T05:54:46.096Z,83.83
2022-09-11T05:57:16.590Z,82.83
2022-09-11T05:59:44.751Z,82.63
2022-09-11T06:02:13.205Z,82.65
2022-09-11T06:04:49.540Z,82.37
2022-09-11T06:07:19.764Z,81.83
2022-09-11T06:09:49.752Z,81.31
2022-09-11T06:12:19.437Z,81.79
2022-09-11T06:14:49.107Z,82.84
2022-09-11T06:17:17.357Z,82.89
2022-09-11T06:19:45.758Z,81.77
2022-09-11T06:22:13.674Z,81.79
2022-09-11T06:24:44.499Z,81.70
2022-09-11T06:27:12.437Z,81.83
2022-09-11T06:29:45.364Z,81.77
2022-09-11T06:32:13.582Z,81.28
2022-09-11T06:34:43.614Z,81.82
2022-09-11T06:37:14.360Z,81.36
2022-09-11T06:39:42.503Z,80.84
2022-09-11T06:42:15.231Z,80.53
2022-09-11T06:44:44.896Z,80.93
2022-09-11T06:47:15.772Z,81.20
2022-09-11T06:49:45.736Z,80.02
2022-09-11T06:52:34.531Z,79.90
2022-09-11T06:55:14.476Z,80.24
2022-09-11T06:57:48.131Z,79.90
2022-09-11T07:00:20.327Z,79.55
2022-09-11T07:02:53.006Z,81.48
2022-09-11T07:05:41.864Z,81.58
2022-09-11T07:08:22.960Z,80.40
2022-09-11T07:10:52.620Z,80.47
2022-09-11T07:13:24.209Z,80.88
2022-09-11T07:16:01.232Z,81.18
2022-09-11T07:18:36.272Z,80.99
2022-09-11T07:21:11.174Z,81.66
2022-09-11T07:23:41.151Z,80.56
2022-09-11T07:26:11.779Z,79.73
2022-09-11T07:28:41.344Z,80.22
2022-09-11T07:31:12.231Z,78.90
2022-09-11T07:33:45.751Z,79.61
2022-09-11T07:36:16.680Z,79.35
2022-09-11T07:38:46.949Z,79.17
2022-09-11T07:41:16.840Z,78.64
2022-09-11T07:43:46.568Z,83.09
2022-09-11T07:46:15.937Z,84.52
2022-09-11T07:48:45.864Z,83.32
2022-09-11T07:51:16.085Z,82.20
2022-09-11T07:53:46.108Z,83.23
2022-09-11T07:56:19.839Z,82.47
2022-09-11T07:58:49.853Z,81.39
2022-09-11T08:01:19.889Z,80.98
2022-09-11T08:03:50.252Z,79.50
2022-09-11T08:06:22.404Z,79.32
2022-09-11T08:08:55.000Z,78.99
2022-09-11T08:11:24.496Z,79.70
2022-09-11T08:13:54.497Z,78.35
2022-09-11T08:16:26.007Z,78.26
2022-09-11T08:18:58.077Z,77.93
2022-09-11T08:21:27.636Z,76.32
2022-09-11T08:23:55.975Z,75.96
2022-09-11T08:26:25.836Z,75.63
2022-09-11T08:28:56.862Z,76.55
2022-09-11T08:31:27.856Z,75.86
2022-09-11T08:33:59.604Z,74.05
2022-09-11T08:36:29.540Z,75.78
2022-09-11T08:39:00.564Z,76.47
2022-09-11T08:41:41.942Z,78.23
2022-09-11T08:44:19.429Z,77.81
2022-09-11T08:46:51.177Z,79.56
2022-09-11T08:49:25.916Z,77.48
2022-09-11T08:51:57.751Z,74.76
2022-09-11T08:54:29.888Z,69.53
2022-09-11T08:57:12.536Z,70.12
2022-09-11T09:00:05.434Z,68.59
2022-09-11T09:03:02.533Z,68.09
2022-09-11T09:05:40.968Z,69.17
2022-09-11T09:08:40.344Z,71.04
2022-09-11T09:11:20.412Z,66.36
2022-09-11T09:14:13.111Z,64.80
2022-09-11T09:16:50.564Z,63.71
2022-09-11T09:19:25.541Z,66.49
2022-09-11T09:22:04.457Z,64.96
2022-09-11T09:24:40.780Z,62.29
2022-09-11T09:27:16.102Z,61.64
2022-09-11T09:29:47.743Z,60.93
2022-09-11T09:32:21.078Z,62.08
2022-09-11T09:34:52.708Z,62.63
2022-09-11T09:37:23.437Z,65.47
2022-09-11T09:39:52.213Z,66.33
2022-09-11T09:42:35.563Z,69.42
2022-09-11T09:45:20.233Z,67.44
2022-09-11T09:47:50.054Z,68.86
2022-09-11T09:50:20.899Z,64.85
2022-09-11T09:52:50.935Z,66.28
2022-09-11T09:55:20.001Z,64.33
2022-09-11T09:57:48.068Z,62.96
2022-09-11T10:00:18.100Z,62.38
2022-09-11T10:02:49.161Z,62.87
2022-09-11T10:05:20.181Z,60.91
2022-09-11T10:07:51.554Z,60.49
2022-09-11T10:10:25.375Z,62.03
2022-09-11T10:13:03.565Z,63.78
2022-09-11T10:15:42.189Z,62.83
2022-09-11T10:18:35.852Z,66.53
2022-09-11T10:21:17.112Z,66.57
2022-09-11T10:23:50.232Z,65.90
2022-09-11T10:26:22.733Z,65.97
2022-09-11T10:28:50.857Z,64.50
2022-09-11T10:31:20.599Z,66.20
2022-09-11T10:33:52.495Z,66.87
2022-09-11T10:36:24.662Z,66.72
2022-09-11T10:38:54.322Z,65.73
2022-09-11T10:41:24.933Z,63.40
2022-09-11T10:44:00.030Z,64.06
2022-09-11T10:46:39.549Z,61.99
2022-09-11T10:49:19.071Z,60.08
2022-09-11T10:52:01.806Z,60.89
2022-09-11T10:54:54.327Z,58.09
2022-09-11T10:57:29.175Z,58.94
2022-09-11T11:00:05.803Z,58.07
2022-09-11T11:02:35.170Z,58.68
2022-09-11T11:05:06.350Z,61.97
2022-09-11T11:08:08.321Z,60.06
2022-09-11T11:11:03.858Z,60.99
2022-09-11T11:13:52.184Z,61.77
2022-09-11T11:16:29.693Z,61.29
2022-09-11T11:19:17.206Z,59.75
2022-09-11T11:21:55.910Z,59.45
2022-09-11T11:24:37.241Z,59.28
2022-09-11T11:27:28.382Z,58.04
2022-09-11T11:30:09.627Z,59.93
2022-09-11T11:32:59.310Z,58.20
2022-09-11T11:35:33.782Z,58.04
2022-09-11T11:38:08.356Z,54.74
2022-09-11T11:40:42.233Z,58.07
2022-09-11T11:43:14.113Z,59.61
2022-09-11T11:45:45.444Z,56.00
2022-09-11T11:48:20.563Z,54.45
2022-09-11T11:50:52.909Z,57.41
2022-09-11T11:53:25.669Z,55.17
2022-09-11T11:56:04.064Z,54.96
2022-09-11T11:58:48.347Z,54.52
2022-09-11T12:01:24.170Z,56.79
2022-09-11T12:03:56.550Z,56.88
2022-09-11T12:06:24.326Z,55.83
2022-09-11T12:08:54.516Z,55.21
2022-09-11T12:11:30.130Z,53.78
2022-09-11T12:14:00.336Z,53.83
2022-09-11T12:16:31.723Z,53.52
2022-09-11T12:19:13.982Z,55.19
2022-09-11T12:22:05.829Z,56.58
2022-09-11T12:25:00.902Z,55.74
2022-09-11T12:27:51.845Z,54.94
2022-09-11T12:30:27.920Z,55.12
2022-09-11T12:33:00.281Z,54.86
2022-09-11T12:35:34.828Z,54.66
2022-09-11T12:38:13.150Z,56.08
2022-09-11T12:40:50.472Z,58.71
2022-09-11T12:43:47.544Z,57.61
2022-09-11T12:46:48.619Z,60.18
2022-09-11T12:49:22.890Z,60.84
2022-09-11T12:51:56.278Z,57.50
2022-09-11T12:54:26.612Z,59.30
2022-09-11T12:57:01.826Z,58.27
2022-09-11T12:59:38.257Z,59.65
2022-09-11T13:02:26.469Z,62.29
2022-09-11T13:04:56.921Z,61.72
2022-09-11T13:07:31.689Z,61.53
2022-09-11T13:10:07.969Z,61.11
2022-09-11T13:12:51.286Z,62.74
2022-09-11T13:15:43.951Z,63.62
2022-09-11T13:18:44.143Z,62.72
2022-09-11T13:21:20.321Z,59.69
2022-09-11T13:23:51.032Z,60.28
2022-09-11T13:26:27.268Z,60.65
2022-09-11T13:28:57.708Z,61.48
2022-09-11T13:31:33.780Z,60.51
2022-09-11T13:34:03.938Z,60.60
2022-09-11T13:36:37.296Z,59.92
2022-09-11T13:39:05.774Z,60.34
2022-09-11T13:41:37.811Z,59.71
2022-09-11T13:44:12.119Z,59.32
2022-09-11T13:46:50.199Z,60.43
2022-09-11T13:49:29.767Z,57.92
2022-09-11T13:52:01.210Z,56.44
2022-09-11T13:54:32.617Z,57.86
2022-09-11T13:57:16.525Z,57.62
2022-09-11T13:59:49.645Z,57.53
2022-09-11T14:02:37.278Z,59.44
2022-09-11T14:05:15.325Z,58.01
2022-09-11T14:07:50.943Z,57.94
2022-09-11T14:10:24.835Z,54.68
2022-09-11T14:12:57.786Z,54.62
2022-09-11T14:15:32.714Z,54.24
2022-09-11T14:18:03.390Z,54.14
2022-09-11T14:20:31.256Z,55.41
2022-09-11T14:23:06.144Z,53.35
2022-09-11T14:25:34.377Z,52.87
2022-09-11T14:28:02.437Z,52.19
2022-09-11T14:30:37.441Z,54.79
2022-09-11T14:33:16.851Z,54.85
2022-09-11T14:35:47.108Z,54.81
2022-09-11T14:38:21.681Z,54.03
2022-09-11T14:40:56.483Z,52.99
2022-09-11T14:50:58.811Z,53.08
2022-09-11T14:53:33.275Z,53.24
2022-09-11T14:56:04.200Z,53.34
2022-09-11T14:58:32.348Z,52.40
2022-09-11T15:01:02.353Z,53.14
2022-09-11T15:03:31.723Z,53.02
2022-09-11T15:06:00.437Z,53.39
2022-09-11T15:08:28.281Z,52.91
2022-09-11T15:10:57.471Z,52.67
2022-09-11T15:13:25.373Z,51.10
2022-09-11T15:15:53.800Z,51.63
2022-09-11T15:18:21.897Z,50.31
2022-09-11T15:20:49.657Z,49.02
2022-09-11T15:23:17.517Z,48.73
2022-09-11T15:25:45.394Z,50.54
2022-09-11T15:28:14.675Z,51.04
2022-09-11T15:30:42.833Z,51.69
2022-09-11T15:33:12.712Z,50.05
2022-09-11T15:35:40.731Z,51.91
2022-09-11T15:38:09.920Z,51.92
2022-09-11T15:40:37.732Z,50.91
2022-09-11T15:43:05.531Z,50.56
2022-09-11T15:45:34.749Z,51.25
2022-09-11T15:48:04.901Z,50.20
2022-09-11T15:50:32.689Z,49.64
2022-09-11T15:53:01.854Z,50.77
2022-09-11T15:55:30.127Z,55.12
2022-09-11T15:58:00.794Z,54.73
2022-09-11T16:00:29.371Z,53.79
2022-09-11T16:02:58.510Z,53.11
2022-09-11T16:05:28.786Z,51.74
2022-09-11T16:07:56.600Z,49.63
2022-09-11T16:10:24.376Z,49.27
2022-09-11T16:12:58.506Z,50.38
2022-09-11T16:15:26.837Z,52.21
2022-09-11T16:17:54.637Z,52.85
2022-09-11T16:20:24.931Z,51.96
2022-09-11T16:22:52.761Z,53.94
2022-09-11T16:25:20.637Z,54.33
2022-09-11T16:27:48.478Z,53.89
2022-09-11T16:30:39.594Z,55.63
2022-09-11T16:33:04.210Z,58.02
2022-09-11T16:35:34.090Z,57.69
2022-09-11T16:38:02.089Z,57.12
2022-09-11T16:40:29.950Z,57.12
2022-09-11T16:43:00.190Z,58.51
2022-09-11T16:45:28.319Z,57.91
2022-09-11T16:47:57.045Z,57.04
2022-09-11T16:50:24.882Z,57.39
2022-09-11T16:52:54.603Z,58.44
2022-09-11T16:55:22.607Z,59.83
2022-09-11T16:57:50.428Z,59.43
2022-09-11T17:00:18.351Z,59.32
2022-09-11T17:02:48.521Z,59.42
2022-09-11T17:05:17.508Z,60.77
2022-09-11T17:07:45.275Z,60.36
2022-09-11T17:10:14.414Z,60.83
2022-09-11T17:12:42.254Z,61.76
2022-09-11T17:15:10.854Z,62.91
2022-09-11T17:17:38.803Z,61.06
2022-09-11T17:20:09.340Z,62.56
2022-09-11T17:22:37.377Z,61.97
2022-09-11T17:25:05.793Z,62.57
2022-09-11T17:27:36.264Z,63.50
2022-09-11T17:30:04.246Z,62.98
2022-09-11T17:32:31.975Z,63.45
2022-09-11T17:34:59.799Z,62.20
2022-09-11T17:37:28.356Z,62.66
2022-09-11T17:39:57.800Z,63.59
2022-09-11T17:42:28.640Z,63.60
2022-09-11T17:44:57.915Z,62.69
2022-09-11T17:47:31.396Z,62.07
2022-09-11T17:50:01.443Z,62.97
2022-09-11T17:52:29.959Z,64.35
2022-09-11T17:54:57.816Z,64.17
2022-09-11T17:57:26.433Z,64.12
2022-09-11T17:59:55.345Z,64.86
2022-09-11T18:02:25.279Z,65.00
2022-09-11T18:04:53.188Z,66.93
2022-09-11T18:07:21.237Z,68.44
2022-09-11T18:09:52.896Z,70.36
2022-09-11T18:12:25.695Z,69.93
2022-09-11T18:14:55.965Z,70.17
2022-09-11T18:17:25.350Z,70.22
2022-09-11T18:19:53.398Z,68.77
2022-09-11T18:22:23.904Z,67.85
2022-09-11T18:24:52.024Z,68.50
2022-09-11T18:27:20.075Z,69.30
2022-09-11T18:29:50.149Z,67.76
2022-09-11T18:32:19.879Z,67.44
2022-09-11T18:34:49.622Z,67.96
2022-09-11T18:37:17.840Z,70.70
2022-09-11T18:39:46.488Z,72.18
2022-09-11T18:42:14.328Z,73.05
2022-09-11T18:44:42.117Z,75.04
2022-09-11T18:47:09.926Z,73.93
2022-09-11T18:49:38.261Z,70.97
2022-09-11T18:52:08.782Z,70.78
2022-09-11T18:54:37.195Z,69.81
2022-09-11T18:57:05.234Z,70.29
2022-09-11T18:59:33.021Z,70.06
2022-09-11T19:02:01.052Z,69.31
2022-09-11T19:04:28.968Z,68.89
2022-09-11T19:06:56.770Z,69.52
2022-09-11T19:09:26.478Z,69.14
2022-09-11T19:11:54.747Z,69.33
2022-09-11T19:14:22.762Z,69.46
2022-09-11T19:16:53.896Z,69.60
2022-09-11T19:19:22.009Z,69.14
2022-09-11T19:21:49.855Z,69.28
2022-09-11T19:24:17.837Z,69.77
2022-09-11T19:26:49.031Z,70.44
2022-09-11T19:29:21.169Z,69.98
2022-09-11T19:31:52.655Z,69.92
2022-09-11T19:34:21.028Z,69.95
2022-09-11T19:36:51.295Z,69.79
2022-09-11T19:39:21.411Z,69.70
2022-09-11T19:41:52.927Z,69.90
2022-09-11T19:44:21.012Z,70.05
2022-09-11T19:46:49.917Z,69.90
2022-09-11T19:49:17.865Z,69.71
2022-09-11T19:51:45.631Z,70.34
2022-09-11T19:54:15.170Z,69.99
2022-09-11T19:56:44.321Z,71.22
2022-09-11T19:59:14.590Z,71.73
2022-09-11T20:01:42.820Z,70.47
2022-09-11T20:04:11.375Z,71.41
2022-09-11T20:06:39.499Z,70.79
2022-09-11T20:09:29.862Z,71.39
2022-09-11T20:11:55.291Z,71.70
2022-09-11T20:14:24.530Z,71.49
2022-09-11T20:16:52.314Z,72.09
2022-09-11T20:19:20.580Z,73.33
2022-09-11T20:21:48.516Z,72.73
2022-09-11T20:24:16.389Z,72.75
2022-09-11T20:26:44.195Z,72.35
2022-09-11T20:29:14.773Z,72.00
2022-09-11T20:31:48.731Z,72.31
2022-09-11T20:34:17.787Z,72.38
2022-09-11T20:36:48.261Z,72.56
2022-09-11T20:39:16.922Z,72.35
2022-09-11T20:41:46.045Z,72.28
2022-09-11T20:44:13.821Z,72.12
2022-09-11T20:46:43.636Z,72.27
2022-09-11T20:49:12.212Z,73.50
2022-09-11T20:51:40.422Z,76.40
2022-09-11T20:54:08.461Z,75.82
2022-09-11T20:56:36.404Z,75.03
2022-09-11T20:59:04.223Z,75.15
2022-09-11T21:01:33.409Z,75.33
2022-09-11T21:04:04.403Z,75.28
2022-09-11T21:06:34.065Z,75.06
2022-09-11T21:09:05.603Z,73.93
2022-09-11T21:11:34.623Z,73.69
2022-09-11T21:14:02.589Z,73.53
2022-09-11T21:16:30.483Z,75.15
2022-09-11T21:19:00.635Z,77.81
2022-09-11T21:21:30.711Z,76.66
2022-09-11T21:24:03.357Z,75.33
2022-09-11T21:26:31.922Z,75.23
2022-09-11T21:29:01.071Z,75.08
2022-09-11T21:31:30.286Z,74.80
2022-09-11T21:33:58.495Z,75.23
2022-09-11T21:36:26.338Z,78.13
2022-09-11T21:38:55.482Z,78.64
2022-09-11T21:41:23.258Z,77.49
2022-09-11T21:43:53.132Z,79.44
2022-09-11T21:46:21.040Z,81.59
2022-09-11T21:48:48.913Z,82.65
2022-09-11T21:51:19.945Z,82.00
2022-09-11T21:53:49.623Z,82.87
2022-09-11T21:56:20.750Z,82.53
2022-09-11T21:58:51.517Z,81.82
2022-09-11T22:01:22.771Z,79.56
2022-09-11T22:03:50.842Z,78.69
2022-09-11T22:06:24.633Z,78.02
2022-09-11T22:08:53.377Z,78.07
2022-09-11T22:11:23.060Z,77.76
2022-09-11T22:13:52.890Z,76.93
2022-09-11T22:16:21.738Z,76.47
2022-09-11T22:18:51.838Z,76.80
2022-09-11T22:21:19.903Z,77.14
2022-09-11T22:23:47.830Z,79.13
2022-09-11T22:26:20.246Z,80.02
2022-09-11T22:28:49.450Z,81.86
2022-09-11T22:31:19.430Z,83.05
2022-09-11T22:33:47.508Z,82.58
2022-09-11T22:36:17.468Z,86.80
2022-09-11T22:38:45.281Z,87.97
2022-09-11T22:41:13.929Z,85.12
2022-09-11T22:43:41.862Z,82.59
2022-09-11T22:46:12.446Z,81.50
2022-09-11T22:48:40.257Z,80.40
2022-09-11T22:51:08.338Z,79.62
2022-09-11T22:53:39.463Z,78.92
2022-09-11T22:56:07.728Z,78.05
2022-09-11T22:58:35.611Z,78.35
2022-09-11T23:01:03.796Z,81.15
2022-09-11T23:03:35.489Z,83.67
2022-09-11T23:06:23.709Z,82.10
2022-09-11T23:08:52.156Z,80.89
2022-09-11T23:11:20.691Z,81.74
2022-09-11T23:13:49.566Z,82.33
2022-09-11T23:16:20.272Z,82.52
2022-09-11T23:18:53.261Z,81.46
2022-09-11T23:21:21.048Z,81.56
2022-09-11T23:23:54.570Z,82.32
2022-09-11T23:26:23.609Z,82.80
2022-09-11T23:28:51.741Z,82.68
2022-09-11T23:31:24.742Z,81.27
2022-09-11T23:33:56.258Z,80.72
2022-09-11T23:36:24.765Z,80.84
2022-09-11T23:38:52.830Z,80.88
2022-09-11T23:41:20.873Z,80.14
2022-09-11T23:43:49.023Z,80.92
2022-09-11T23:46:17.482Z,82.62
2022-09-11T23:48:45.660Z,82.54
2022-09-11T23:51:15.580Z,81.57
2022-09-11T23:53:47.554Z,81.27
2022-09-11T23:56:15.614Z,80.55
2022-09-11T23:58:44.151Z,79.54
